createdAt,value
2022-10-16T01:08:01.501Z,26.50
2022-10-16T01:13:04.455Z,27.13
2022-10-16T01:18:10.422Z,28.63
2022-10-16T01:23:16.110Z,29.03
2022-10-16T01:28:20.213Z,35.08
2022-10-16T01:33:25.793Z,27.90
2022-10-16T01:38:37.752Z,28.63
2022-10-16T01:43:43.634Z,28.67
2022-10-16T02:03:54.406Z,29.10
2022-10-16T02:08:56.920Z,27.75
2022-10-16T02:14:05.022Z,27.00
2022-10-16T02:19:08.744Z,20.33
2022-10-16T02:24:20.717Z,22.10
2022-10-16T02:29:25.090Z,30.37
2022-10-16T02:34:28.522Z,21.50
2022-10-16T02:39:31.211Z,22.00
2022-10-16T02:44:33.824Z,21.53
2022-10-16T02:49:36.442Z,21.60
2022-10-16T02:54:39.220Z,21.80
2022-10-16T02:59:42.323Z,21.73
2022-10-16T03:04:44.962Z,21.27
2022-10-16T03:09:47.677Z,21.17
2022-10-16T03:14:50.771Z,21.87
2022-10-16T03:19:53.449Z,21.03
2022-10-16T03:24:56.153Z,21.40
2022-10-16T03:29:58.832Z,26.20
2022-10-16T03:35:01.531Z,23.83
2022-10-16T03:40:04.503Z,21.97
2022-10-16T03:45:07.463Z,22.40
2022-10-16T03:50:10.308Z,21.77
2022-10-16T04:00:15.752Z,26.17
2022-10-16T05:10:53.075Z,29.87
2022-10-16T05:15:55.839Z,31.00
2022-10-16T05:20:58.527Z,31.30
2022-10-16T07:37:15.890Z,38.83
2022-10-16T07:42:18.415Z,36.20
2022-10-16T07:47:23.782Z,36.13
2022-10-16T07:52:26.923Z,33.23
2022-10-16T07:57:29.664Z,33.70
2022-10-16T08:02:33.805Z,35.20
2022-10-16T08:07:36.554Z,34.87
2022-10-16T08:12:39.333Z,32.13
2022-10-16T08:17:41.951Z,31.70
2022-10-16T08:22:44.597Z,32.83
2022-10-16T08:27:47.187Z,32.27
2022-10-16T08:32:49.978Z,30.97
2022-10-16T08:37:52.949Z,31.37
2022-10-16T08:42:58.792Z,30.77
2022-10-16T08:48:13.573Z,28.63
2022-10-16T08:53:19.090Z,30.53
2022-10-16T08:58:28.812Z,27.63
2022-10-16T09:03:44.516Z,26.57
2022-10-16T09:08:59.429Z,26.23
2022-10-16T09:14:19.362Z,25.80
2022-10-16T09:19:21.856Z,26.27
2022-10-16T09:24:27.156Z,25.13
2022-10-16T09:29:32.356Z,25.03
2022-10-16T09:34:36.928Z,25.87
2022-10-16T09:39:50.181Z,26.77
2022-10-16T09:44:54.622Z,26.77
2022-10-16T09:50:03.295Z,25.03
2022-10-16T09:55:16.847Z,29.73
2022-10-16T10:00:19.996Z,25.13
2022-10-16T10:05:24.055Z,24.13
2022-10-16T10:10:30.670Z,23.47
2022-10-16T10:15:35.698Z,24.70
2022-10-16T10:20:39.840Z,23.33
2022-10-16T10:25:42.594Z,25.07
2022-10-16T10:30:50.856Z,25.30
2022-10-16T10:35:53.680Z,24.80
2022-10-16T10:40:56.069Z,26.57
2022-10-16T10:46:04.816Z,23.67
2022-10-16T10:51:11.850Z,26.67
2022-10-16T10:56:17.958Z,24.00
2022-10-16T11:01:27.630Z,24.23
2022-10-16T11:06:56.480Z,26.23
2022-10-16T11:12:19.728Z,22.77
2022-10-16T11:17:33.507Z,23.73
2022-10-16T11:22:41.431Z,22.80
2022-10-16T11:27:57.450Z,21.00
2022-10-16T11:33:09.358Z,19.57
2022-10-16T11:38:16.784Z,19.37
2022-10-16T11:43:33.639Z,18.73
2022-10-16T11:48:45.615Z,18.23
2022-10-16T11:53:48.305Z,19.03
2022-10-16T11:58:57.958Z,18.10
2022-10-16T12:04:03.789Z,16.90
2022-10-16T12:09:06.627Z,15.37
2022-10-16T12:14:09.463Z,16.07
2022-10-16T12:19:16.679Z,14.90
2022-10-16T12:24:39.127Z,14.27
2022-10-16T12:29:46.151Z,14.17
2022-10-16T12:34:49.467Z,13.17
2022-10-16T12:39:53.130Z,14.23
2022-10-16T12:44:56.085Z,12.00
2022-10-16T12:49:59.658Z,11.70
2022-10-16T12:55:03.210Z,9.70
2022-10-16T13:00:24.435Z,8.30
2022-10-16T13:05:27.189Z,10.57
2022-10-16T13:10:33.202Z,12.60
2022-10-16T13:15:42.365Z,9.27
2022-10-16T13:20:45.350Z,8.87
2022-10-16T13:26:06.683Z,7.70
2022-10-16T13:31:20.077Z,6.83
2022-10-16T13:36:24.117Z,7.17
2022-10-16T13:41:26.751Z,7.43
2022-10-16T13:46:30.885Z,7.40
2022-10-16T13:51:34.138Z,7.60
2022-10-16T13:56:36.852Z,8.50
2022-10-16T14:08:18.507Z,6.80
2022-10-16T14:20:16.119Z,7.77
2022-10-16T14:25:46.877Z,8.57
2022-10-16T14:31:23.919Z,10.30
2022-10-16T14:43:52.476Z,8.67
2022-10-16T14:49:03.225Z,7.60
2022-10-16T14:54:06.008Z,11.00
2022-10-16T14:59:11.227Z,9.40
2022-10-16T15:04:15.139Z,8.40
2022-10-16T15:09:17.874Z,8.87
2022-10-16T15:14:21.061Z,8.30
2022-10-16T15:19:23.768Z,12.77
2022-10-16T15:24:26.593Z,10.70
2022-10-16T15:29:29.194Z,11.13
2022-10-16T15:34:32.182Z,11.63
2022-10-16T15:39:37.813Z,12.35
2022-10-16T15:44:44.154Z,13.30
2022-10-16T15:49:47.176Z,12.93
2022-10-16T15:54:53.405Z,25.27
2022-10-16T15:59:57.633Z,16.90
2022-10-16T16:05:00.153Z,16.60
2022-10-16T16:10:03.119Z,14.75
2022-10-16T16:15:07.772Z,14.68
2022-10-16T16:20:11.183Z,14.17
2022-10-16T16:25:13.680Z,13.53
2022-10-16T16:30:18.662Z,13.57
2022-10-16T16:35:23.225Z,15.20
2022-10-16T16:40:25.775Z,14.00
2022-10-16T16:50:36.592Z,16.73
2022-10-16T17:00:56.851Z,21.23
2022-10-16T17:06:00.820Z,45.53
2022-10-16T17:11:03.780Z,18.73
2022-10-16T17:16:09.051Z,18.13
2022-10-16T17:21:11.679Z,18.50
2022-10-16T17:26:15.667Z,19.23
2022-10-16T17:31:20.236Z,19.50
2022-10-16T17:36:24.279Z,19.00
2022-10-16T17:41:28.401Z,19.43
2022-10-16T17:46:31.089Z,18.70
2022-10-16T17:51:34.046Z,18.97
2022-10-16T17:56:36.906Z,19.83
2022-10-16T18:01:45.620Z,20.60
2022-10-16T18:06:48.385Z,20.37
2022-10-16T18:11:55.632Z,22.43
2022-10-16T18:16:59.144Z,21.43
2022-10-16T18:22:01.749Z,20.53
2022-10-16T18:27:05.014Z,30.20
2022-10-16T18:32:07.710Z,91.60
2022-10-16T18:37:10.549Z,24.13
2022-10-16T18:42:13.315Z,19.13
2022-10-16T18:47:16.297Z,23.60
2022-10-16T18:52:18.870Z,19.63
2022-10-16T18:57:21.430Z,20.60
2022-10-16T19:02:24.049Z,18.70
2022-10-16T19:07:27.428Z,21.73
2022-10-16T19:12:30.330Z,28.10
2022-10-16T19:17:32.964Z,21.77
2022-10-16T19:22:52.894Z,21.50
2022-10-16T19:27:55.596Z,18.40
2022-10-16T19:32:58.174Z,23.73
2022-10-16T19:38:01.667Z,15.77
2022-10-16T19:43:04.332Z,15.10
2022-10-16T19:48:06.955Z,16.33
2022-10-16T19:53:09.645Z,25.00
2022-10-16T19:58:12.783Z,23.97
2022-10-16T20:03:17.179Z,21.57
2022-10-16T20:08:19.761Z,16.53
2022-10-16T20:13:22.628Z,17.47
2022-10-16T20:18:25.265Z,17.73
2022-10-16T20:23:27.927Z,14.87
2022-10-16T20:28:30.605Z,14.33
2022-10-16T20:33:33.605Z,14.23
2022-10-16T20:38:37.021Z,13.40
2022-10-16T20:43:40.898Z,12.37
2022-10-16T20:48:47.218Z,12.10
2022-10-16T20:53:55.006Z,11.40
2022-10-16T20:58:58.060Z,12.50
2022-10-16T21:04:02.159Z,10.83
2022-10-16T21:09:05.279Z,10.70
2022-10-16T21:14:09.040Z,11.07
2022-10-16T21:19:11.826Z,11.67
2022-10-16T21:24:16.646Z,10.83
2022-10-16T21:29:20.446Z,10.37
2022-10-16T21:34:23.105Z,10.67
2022-10-16T21:39:26.147Z,9.23
2022-10-16T21:44:28.681Z,9.23
2022-10-16T21:49:31.138Z,8.47
2022-10-16T21:54:34.189Z,8.13
2022-10-16T21:59:36.956Z,8.30
2022-10-16T22:04:39.613Z,7.10
2022-10-16T22:09:42.386Z,7.40
2022-10-16T22:14:45.185Z,6.43
2022-10-16T22:19:47.941Z,7.27
2022-10-16T22:24:50.511Z,9.37
2022-10-16T22:29:53.322Z,8.60
2022-10-16T22:34:56.235Z,8.73
2022-10-16T22:40:00.943Z,7.70
2022-10-16T22:45:04.028Z,7.53
2022-10-16T22:50:06.949Z,7.17
2022-10-16T22:55:09.709Z,7.30
2022-10-16T23:00:13.871Z,8.60
2022-10-16T23:05:16.582Z,8.13
2022-10-16T23:10:19.421Z,7.63
2022-10-16T23:15:22.229Z,7.50
2022-10-16T23:20:25.099Z,7.70
2022-10-16T23:25:27.939Z,7.40
2022-10-16T23:30:31.703Z,7.67
2022-10-16T23:35:34.500Z,7.63
2022-10-16T23:40:37.161Z,7.47
2022-10-16T23:45:39.840Z,7.93
2022-10-16T23:50:42.480Z,8.50
2022-10-16T23:55:45.092Z,8.50
